Time;durP1;ratioP1;P1;durP2;ratioP2;P2;SDS_P1;SDS_P2;PMS_P1;PMS_P2;Temp;Humidity;BMP_temperature;BMP_pressure;BME280_temperature;BME280_humidity;BME280_pressure;Samples;Min_cycle;Max_cycle;Signal;HPM_P1;HPM_P2
2023/03/19 00:00:45;;;;;;;410.92;249.00;;;8.80;99.90;;;9.07;92.06;99585.88;4951564;28;20257;-81
2023/03/19 00:03:12;;;;;;;418.10;255.25;;;9.00;99.90;;;9.18;92.05;99604.38;4953541;28;20242;-80
2023/03/19 00:05:39;;;;;;;409.13;243.23;;;9.00;99.90;;;9.18;91.71;99604.38;4951971;28;20238;-80
2023/03/19 00:08:06;;;;;;;409.15;238.43;;;9.00;99.90;;;9.11;91.72;99594.69;4946387;28;20277;-81
2023/03/19 00:10:38;;;;;;;404.77;230.32;;;8.90;99.90;;;9.08;92.03;99594.66;4946617;28;20269;-81
2023/03/19 00:13:05;;;;;;;408.02;233.63;;;8.90;99.90;;;8.91;92.53;99594.63;4943805;28;20248;-80
2023/03/19 00:15:32;;;;;;;418.80;243.15;;;8.80;99.90;;;8.55;93.90;99609.47;4948811;28;20253;-80
2023/03/19 00:18:00;;;;;;;395.45;226.52;;;8.60;99.90;;;8.66;94.29;99623.56;4948228;29;20269;-81
2023/03/19 00:20:27;;;;;;;415.05;236.10;;;9.30;99.90;;;8.60;95.02;99631.44;4951312;28;20313;-81
2023/03/19 00:22:54;;;;;;;406.30;229.65;;;8.50;99.90;;;8.66;95.21;99660.44;4952797;28;20678;-80
2023/03/19 00:25:22;;;;;;;415.85;239.73;;;8.30;99.90;;;8.36;96.95;99668.22;4944935;28;20237;-79
2023/03/19 00:27:49;;;;;;;410.63;225.05;;;8.20;99.90;;;8.29;98.19;99667.25;4951243;28;20316;-80
2023/03/19 00:30:17;;;;;;;414.58;228.90;;;8.20;99.90;;;8.46;97.76;99684.94;4948602;28;20242;-80
2023/03/19 00:32:47;;;;;;;403.42;219.38;;;8.30;99.90;;;8.35;98.23;99684.88;4945361;28;20558;-80
2023/03/19 00:35:15;;;;;;;402.63;215.88;;;8.20;99.90;;;8.32;99.10;99700.63;4951657;28;20233;-80
2023/03/19 00:37:42;;;;;;;417.08;225.52;;;8.30;99.90;;;8.43;98.80;99711.28;4946297;28;20333;-80
2023/03/19 00:40:10;;;;;;;400.95;216.10;;;8.30;99.90;;;8.50;98.69;99716.59;4949105;28;20239;-81
2023/03/19 00:42:37;;;;;;;400.23;213.35;;;8.50;99.90;;;8.63;98.32;99728.09;4947226;28;20238;-81
2023/03/19 00:45:05;;;;;;;406.95;218.40;;;8.40;99.90;;;8.77;97.43;99736.94;4947386;28;20301;-80
2023/03/19 00:47:32;;;;;;;417.85;222.90;;;8.50;99.90;;;8.86;96.81;99744.03;4946613;28;20238;-79
2023/03/19 00:49:59;;;;;;;413.92;220.05;;;8.60;99.90;;;8.80;96.94;99752.78;4947382;28;20241;-80
2023/03/19 00:52:26;;;;;;;411.67;217.65;;;8.70;99.90;;;8.83;96.52;99744.00;4945963;28;20264;-80
2023/03/19 00:54:53;;;;;;;409.73;220.75;;;8.70;99.90;;;8.74;96.96;99743.97;4948085;28;20273;-80
2023/03/19 00:57:21;;;;;;;411.38;222.27;;;8.60;99.90;;;8.74;96.83;99755.38;4942807;28;20293;-79
2023/03/19 00:59:48;;;;;;;402.90;217.05;;;8.60;99.90;;;8.88;96.46;99773.91;4947220;28;20301;-80
2023/03/19 01:02:16;;;;;;;407.48;216.70;;;8.70;99.90;;;8.88;96.28;99777.44;4947623;28;20665;-80
2023/03/19 01:04:43;;;;;;;404.25;218.20;;;8.70;99.90;;;8.83;96.58;99765.09;4948599;28;20272;-80
2023/03/19 01:07:10;;;;;;;400.50;219.80;;;8.70;99.90;;;8.90;96.41;99774.81;4952128;28;20232;-80
2023/03/19 01:09:38;;;;;;;405.15;218.15;;;8.80;99.90;;;8.91;95.83;99769.53;4940147;28;20233;-80
2023/03/19 01:12:06;;;;;;;395.58;212.93;;;8.70;99.90;;;8.80;95.93;99763.31;4948400;28;20233;-80
2023/03/19 01:14:34;;;;;;;399.65;212.65;;;8.70;99.90;;;8.80;96.66;99779.13;4947287;28;20296;-80
2023/03/19 01:17:01;;;;;;;407.27;224.30;;;8.70;99.90;;;8.70;96.79;99779.09;4951566;28;20316;-80
2023/03/19 01:19:29;;;;;;;405.15;216.73;;;8.50;99.90;;;8.61;97.44;99788.69;4949091;28;20243;-80
2023/03/19 01:21:56;;;;;;;399.50;216.15;;;;;;;8.64;97.44;99798.38;4951078;28;20643;-80
2023/03/19 01:24:27;;;;;;;401.42;214.18;;;;;;;8.54;97.96;99796.56;4948127;28;20233;-79
2023/03/19 01:26:54;;;;;;;405.88;218.60;;;8.40;99.90;;;8.57;98.13;99810.63;4947874;28;20250;-80
2023/03/19 01:29:21;;;;;;;402.95;217.40;;;8.50;99.90;;;8.60;98.51;99815.03;4947500;28;20305;-80
2023/03/19 01:31:48;;;;;;;399.10;212.88;;;8.50;99.90;;;8.60;99.12;99833.50;4945475;28;20282;-80
2023/03/19 01:34:15;;;;;;;409.83;219.95;;;8.40;99.90;;;8.56;99.65;99845.75;4948725;28;20288;-80
2023/03/19 01:36:42;;;;;;;413.45;227.98;;;8.50;99.90;;;8.58;99.81;99853.69;4947999;28;20253;-80
2023/03/19 01:39:10;;;;;;;394.85;210.35;;;8.50;99.90;;;8.45;100.00;99857.97;4947221;28;20253;-80
2023/03/19 01:41:37;;;;;;;395.50;211.00;;;8.40;99.90;;;8.37;100.00;99864.94;4949275;28;20244;-79
2023/03/19 01:44:31;;;;;;;411.88;219.52;;;8.30;99.90;;;8.44;100.00;99874.66;4943673;28;20297;-81
2023/03/19 01:47:05;;;;;;;402.35;210.80;;;8.30;99.90;;;8.40;100.00;99879.88;4949549;28;20257;-80
2023/03/19 01:49:33;;;;;;;407.95;220.38;;;8.30;99.90;;;8.40;100.00;99877.25;4947076;28;20275;-80
2023/03/19 01:52:03;;;;;;;410.95;225.30;;;8.20;99.90;;;8.44;100.00;99881.66;4948685;28;20269;-80
2023/03/19 01:54:32;;;;;;;416.75;227.02;;;8.30;99.90;;;8.38;100.00;99881.63;4948212;28;20229;-81
2023/03/19 01:57:07;;;;;;;406.08;221.00;;;8.30;99.90;;;8.24;100.00;99878.81;4942764;28;20246;-80
2023/03/19 01:59:46;;;;;;;410.85;213.77;;;8.10;99.90;;;8.08;100.00;99882.19;4948013;28;20264;-80
2023/03/19 02:02:30;;;;;;;397.50;202.95;;;8.10;99.90;;;8.21;100.00;99884.94;4947793;28;20241;-80
2023/03/19 02:05:02;;;;;;;409.00;212.48;;;8.10;99.90;;;8.04;100.00;99902.31;4944970;28;20269;-80
2023/03/19 02:07:33;;;;;;;400.70;203.77;;;8.10;99.90;;;8.37;100.00;99920.25;4948845;28;20242;-80
2023/03/19 02:10:06;;;;;;;395.83;199.23;;;8.10;99.90;;;8.62;100.00;99932.78;4928364;29;20242;-79
2023/03/19 02:12:34;;;;;;;433.20;221.55;;;8.40;99.90;;;8.66;99.66;99917.88;4936016;28;20273;-80
2023/03/19 02:15:01;;;;;;;392.58;202.13;;;8.50;99.90;;;8.74;99.03;99912.66;4947543;28;20270;-80
2023/03/19 02:17:28;;;;;;;407.85;207.45;;;8.60;99.90;;;8.68;98.71;99913.50;4944631;28;20233;-80
2023/03/19 02:20:31;;;;;;;407.25;215.23;;;8.50;99.90;;;8.58;98.87;99899.38;4944192;28;20265;-79
2023/03/19 02:23:07;;;;;;;413.40;214.07;;;8.50;99.90;;;8.67;98.38;99911.75;4940448;28;20229;-80
2023/03/19 02:25:45;;;;;;;400.75;203.55;;;8.50;99.90;;;8.69;98.26;99917.03;4949155;28;20260;-81
2023/03/19 02:28:16;;;;;;;398.98;202.82;;;8.60;99.90;;;8.74;98.03;99923.22;4946913;28;20710;-80
2023/03/19 02:30:44;;;;;;;406.30;207.50;;;8.60;99.90;;;8.71;97.89;99923.19;4948639;28;20233;-81
2023/03/19 02:33:17;;;;;;;400.38;201.52;;;8.60;99.90;;;8.72;98.19;99930.22;4941241;29;20257;-80
2023/03/19 02:35:48;;;;;;;403.83;210.25;;;8.60;99.90;;;8.68;99.00;99933.72;4934359;28;20237;-80
2023/03/19 02:38:15;;;;;;;413.27;219.80;;;8.60;99.90;;;8.71;99.07;99950.44;4946025;29;20233;-80
2023/03/19 02:41:00;;;;;;;395.15;204.82;;;8.60;99.90;;;8.74;99.23;99952.22;4945213;28;20258;-80
2023/03/19 02:43:28;;;;;;;408.77;210.07;;;8.60;99.90;;;8.74;99.00;99963.63;4947870;28;20233;-80
2023/03/19 02:45:55;;;;;;;404.05;209.38;;;8.60;99.90;;;8.81;99.00;99972.47;4949839;28;20256;-81
2023/03/19 02:48:23;;;;;;;404.77;216.30;;;8.70;99.90;;;8.87;98.69;99983.97;4940386;28;20250;-80
2023/03/19 02:50:51;;;;;;;389.10;206.95;;;8.70;99.90;;;8.94;98.07;99987.53;4952174;28;20277;-80
2023/03/19 02:53:18;;;;;;;402.05;211.50;;;8.80;99.90;;;8.93;98.19;99989.28;4950667;28;20316;-81
2023/03/19 02:55:45;;;;;;;399.83;210.18;;;8.80;99.90;;;8.99;97.89;99978.78;4948576;28;20313;-80
2023/03/19 02:58:13;;;;;;;407.88;215.93;;;8.90;99.90;;;9.00;97.66;99987.59;4944504;28;20237;-80
2023/03/19 03:00:41;;;;;;;411.88;217.93;;;8.80;99.90;;;9.14;97.42;99995.66;4944563;28;20268;-80
2023/03/19 03:03:08;;;;;;;410.98;222.35;;;9.00;99.90;;;9.16;96.63;99997.44;4947600;28;20241;-80
2023/03/19 03:05:35;;;;;;;413.40;223.80;;;9.00;99.90;;;9.14;96.43;99982.47;4948584;28;20242;-81
2023/03/19 03:08:03;;;;;;;402.88;215.50;;;9.10;99.90;;;9.22;96.11;99986.03;4950906;28;20312;-80
2023/03/19 03:10:32;;;;;;;411.73;229.10;;;9.10;99.90;;;9.17;95.93;99979.84;4948533;28;20316;-80
2023/03/19 03:13:00;;;;;;;402.95;220.48;;;9.00;99.90;;;9.17;95.47;99979.84;4951306;28;20238;-80
2023/03/19 03:15:27;;;;;;;412.27;227.30;;;9.10;99.90;;;9.11;95.48;99961.34;4950226;28;20240;-80
2023/03/19 03:17:55;;;;;;;404.65;226.32;;;9.10;99.90;;;9.19;94.75;99965.78;4943027;28;20237;-81
2023/03/19 03:20:23;;;;;;;406.80;227.32;;;9.00;99.90;;;9.09;95.06;99966.56;4949132;28;20309;-81
2023/03/19 03:22:50;;;;;;;396.98;218.77;;;9.00;99.90;;;9.03;95.50;99973.53;4950724;28;20342;-80
2023/03/19 03:25:18;;;;;;;408.17;228.95;;;9.00;99.90;;;8.97;95.85;99975.25;4952182;28;20237;-80
2023/03/19 03:27:45;;;;;;;411.40;227.48;;;8.90;99.90;;;8.95;96.06;99982.28;4947992;28;20265;-81
2023/03/19 03:30:12;;;;;;;406.48;224.07;;;8.90;99.90;;;8.89;96.60;99981.34;4948188;28;20647;-80
2023/03/19 03:32:40;;;;;;;401.80;221.80;;;8.80;99.90;;;8.83;97.17;99994.47;4944708;28;20308;-81
2023/03/19 03:35:08;;;;;;;399.30;224.63;;;8.70;99.90;;;8.86;96.97;99994.50;4946958;28;20329;-80
2023/03/19 03:37:36;;;;;;;412.42;229.77;;;8.70;99.90;;;8.87;97.31;99999.78;4950395;28;20234;-80
2023/03/19 03:40:07;;;;;;;402.13;219.77;;;8.80;99.90;;;8.87;97.23;100004.19;4949043;29;20242;-81
2023/03/19 03:42:36;;;;;;;404.40;222.32;;;8.70;99.90;;;8.84;97.73;100014.69;4950554;28;20222;-81
2023/03/19 03:45:04;;;;;;;394.75;221.68;;;;;;;8.85;97.71;100017.34;4951605;28;20313;-80
2023/03/19 03:47:31;;;;;;;413.00;230.27;;;8.80;99.90;;;8.92;97.60;100031.47;4947336;28;20333;-80
2023/03/19 03:49:58;;;;;;;395.25;216.45;;;8.80;99.90;;;8.94;97.66;100042.91;4948667;28;20252;-81
2023/03/19 03:52:30;;;;;;;414.83;228.15;;;8.80;99.90;;;8.92;97.61;100042.03;4949630;28;20237;-80
2023/03/19 03:54:57;;;;;;;410.48;230.05;;;8.80;99.90;;;8.92;97.85;100053.44;4951141;28;20249;-80
2023/03/19 03:57:25;;;;;;;415.55;230.07;;;10.70;99.90;;;8.98;97.25;100052.63;4954092;28;20230;-80
2023/03/19 03:59:53;;;;;;;407.17;226.40;;;8.80;99.90;;;9.01;97.04;100050.00;4951528;28;20332;-81
2023/03/19 04:02:20;;;;;;;409.08;228.73;;;8.80;99.90;;;8.92;97.48;100052.56;4948544;28;20607;-80
2023/03/19 04:04:47;;;;;;;399.70;227.85;;;8.80;99.90;;;8.91;97.80;100059.59;4953047;28;20238;-80
2023/03/19 04:07:14;;;;;;;414.13;242.70;;;8.80;99.90;;;8.92;97.67;100071.03;4952141;28;20242;-80
2023/03/19 04:09:42;;;;;;;407.83;230.88;;;8.80;99.90;;;8.95;97.53;100073.69;4945425;28;20258;-80
2023/03/19 04:12:10;;;;;;;395.60;224.93;;;8.80;99.90;;;8.94;97.49;100079.84;4945349;28;20253;-80
2023/03/19 04:14:37;;;;;;;411.73;238.93;;;8.80;99.90;;;8.94;97.77;100083.34;4950023;28;20241;-80
2023/03/19 04:17:04;;;;;;;396.52;224.73;;;8.80;99.90;;;8.87;98.25;100091.19;4947527;28;20257;-80
2023/03/19 04:19:31;;;;;;;398.65;222.02;;;8.80;99.90;;;8.92;97.86;100100.03;4952009;28;20234;-81
2023/03/19 04:21:58;;;;;;;406.73;228.25;;;8.80;99.90;;;8.95;97.96;100103.59;4947430;28;20242;-80
2023/03/19 04:24:25;;;;;;;400.13;223.27;;;8.80;99.90;;;8.88;98.31;100116.69;4951063;28;20249;-80
2023/03/19 04:26:52;;;;;;;400.10;226.60;;;8.80;99.90;;;8.81;98.82;100115.75;4954511;28;20245;-81
2023/03/19 04:29:19;;;;;;;402.15;225.38;;;8.80;99.90;;;8.85;98.92;100121.94;4960563;28;20234;-81
2023/03/19 04:31:47;;;;;;;397.92;221.85;;;8.70;99.90;;;8.83;99.08;100123.66;4951833;28;20313;-81
2023/03/19 04:34:14;;;;;;;402.50;228.77;;;8.80;99.90;;;8.86;99.10;100132.50;4946494;28;20305;-81
2023/03/19 04:36:41;;;;;;;407.42;226.13;;;8.80;99.90;;;8.89;98.90;100137.81;4948560;28;20288;-81
2023/03/19 04:39:08;;;;;;;401.52;224.70;;;8.80;99.90;;;8.87;99.16;100136.91;4945600;28;20242;-80
2023/03/19 04:41:36;;;;;;;405.33;227.57;;;8.80;99.90;;;8.95;98.85;100142.25;4949268;28;20227;-81
2023/03/19 04:44:03;;;;;;;409.60;229.40;;;8.80;99.90;;;8.97;99.01;100144.06;4949445;28;20257;-79
2023/03/19 04:46:30;;;;;;;414.13;234.57;;;8.90;99.90;;;9.07;98.40;100147.66;4947187;28;20253;-81
2023/03/19 04:48:58;;;;;;;403.73;228.98;;;8.90;99.90;;;9.12;97.81;100142.47;4954617;28;20242;-80
2023/03/19 04:51:26;;;;;;;399.33;228.38;;;9.00;99.90;;;9.10;97.91;100141.53;4941951;28;20304;-81
2023/03/19 04:53:53;;;;;;;411.63;229.80;;;9.00;99.90;;;9.03;98.24;100142.34;4949416;28;20243;-81
2023/03/19 04:56:20;;;;;;;400.60;230.65;;;8.90;99.90;;;9.01;98.46;100138.81;4944627;28;20290;-80
2023/03/19 04:58:47;;;;;;;399.85;228.82;;;8.90;99.90;;;9.05;98.06;100141.50;4951231;28;20234;-81
2023/03/19 05:01:14;;;;;;;409.00;234.80;;;9.00;99.90;;;9.04;98.40;100147.63;4965057;28;20300;-80
2023/03/19 05:03:42;;;;;;;406.08;235.75;;;8.90;99.90;;;9.17;97.88;100148.69;4946096;29;20260;-80
2023/03/19 05:06:09;;;;;;;401.23;231.90;;;9.00;99.90;;;9.13;97.45;100152.16;4952182;28;20230;-80
2023/03/19 05:08:36;;;;;;;411.15;237.00;;;9.00;99.90;;;9.16;97.30;100157.47;4942912;28;20242;-80
2023/03/19 05:11:03;;;;;;;407.42;234.45;;;9.10;99.90;;;9.10;97.42;100157.38;4948591;28;20283;-80
2023/03/19 05:13:30;;;;;;;409.80;230.95;;;9.00;99.90;;;8.97;97.90;100162.50;4947919;28;20312;-81
2023/03/19 05:15:58;;;;;;;407.27;238.02;;;8.90;99.90;;;8.87;98.77;100168.53;4952087;28;20266;-80
2023/03/19 05:18:26;;;;;;;403.25;232.95;;;8.80;99.90;;;8.86;99.12;100174.69;4950806;28;20254;-81
2023/03/19 05:20:54;;;;;;;408.75;234.80;;;5.70;99.90;;;8.84;99.71;100181.69;4947718;28;20237;-79
2023/03/19 05:23:21;;;;;;;398.50;236.38;;;8.70;99.90;;;8.83;100.00;100179.03;4954963;28;20230;-79
2023/03/19 05:25:49;;;;;;;405.83;234.75;;;8.70;99.90;;;8.80;100.00;100185.16;4948527;28;20710;-79
2023/03/19 05:28:16;;;;;;;413.85;241.68;;;8.70;99.90;;;8.80;100.00;100195.72;4944396;28;20242;-79
2023/03/19 05:30:43;;;;;;;403.17;237.80;;;8.70;99.90;;;8.81;99.94;100199.22;4951316;28;20285;-80
2023/03/19 05:33:11;;;;;;;400.83;236.25;;;8.70;99.90;;;8.85;99.93;100203.69;4941356;28;20723;-79
2023/03/19 05:35:39;;;;;;;391.20;233.38;;;8.70;99.90;;;8.78;99.75;100189.53;4951326;28;20316;-79
2023/03/19 05:38:07;;;;;;;409.77;238.00;;;8.70;99.90;;;8.76;99.84;100193.03;4941495;28;20246;-80
2023/03/19 05:40:34;;;;;;;417.48;243.55;;;8.60;99.90;;;8.69;100.00;100202.59;4944693;28;20597;-80
2023/03/19 05:43:02;;;;;;;399.30;231.23;;;8.60;99.90;;;8.72;100.00;100207.03;4950060;28;20287;-81
2023/03/19 05:45:29;;;;;;;400.58;231.15;;;8.60;99.90;;;8.71;100.00;100213.16;4950061;28;20264;-78
2023/03/19 05:47:56;;;;;;;417.48;239.18;;;8.60;99.90;;;8.51;100.00;100226.97;4950224;28;20252;-78
2023/03/19 05:50:23;;;;;;;418.33;245.05;;;8.50;99.90;;;8.57;100.00;100226.16;4941516;28;20301;-79
2023/03/19 05:52:50;;;;;;;405.13;229.65;;;8.50;99.90;;;8.70;100.00;100221.94;4947216;28;20269;-79
2023/03/19 05:55:17;;;;;;;397.92;231.98;;;8.50;99.90;;;8.72;100.00;100228.13;4943917;28;20242;-79
2023/03/19 05:57:45;;;;;;;410.73;238.23;;;8.60;99.90;;;8.74;100.00;100223.75;4926040;28;20246;-79
2023/03/19 06:00:14;;;;;;;397.75;230.15;;;8.60;99.90;;;8.78;100.00;100246.66;4947960;28;20305;-79
2023/03/19 06:02:42;;;;;;;418.92;236.48;;;8.60;99.90;;;8.74;100.00;100251.00;4945340;28;20266;-79
2023/03/19 06:05:10;;;;;;;403.92;242.93;;;8.60;99.90;;;8.74;100.00;100255.38;4951517;28;20333;-79
2023/03/19 06:07:37;;;;;;;423.88;237.68;;;8.60;99.90;;;8.68;100.00;100257.94;4944414;28;20230;-79
2023/03/19 06:10:05;;;;;;;402.42;231.75;;;8.60;99.90;;;8.69;100.00;100268.50;4948702;28;20229;-79
2023/03/19 06:12:32;;;;;;;404.45;228.82;;;8.60;99.90;;;8.74;100.00;100289.66;4946123;28;20238;-79
2023/03/19 06:15:00;;;;;;;412.45;235.75;;;8.50;99.90;;;8.62;100.00;100291.25;4953425;28;20256;-80
2023/03/19 06:17:27;;;;;;;402.70;229.55;;;8.50;99.90;;;8.66;100.00;100292.19;4947646;28;20234;-79
2023/03/19 06:19:54;;;;;;;410.38;235.85;;;8.60;99.90;;;8.73;100.00;100290.53;4948157;28;20242;-80
2023/03/19 06:22:21;;;;;;;401.80;223.90;;;8.50;99.90;;;8.78;100.00;100296.75;4950672;28;20648;-81
2023/03/19 06:24:48;;;;;;;411.48;241.57;;;7.40;99.90;;;8.75;100.00;100310.78;4949956;28;20240;-81
2023/03/19 06:27:15;;;;;;;409.35;238.32;;;8.60;99.90;;;8.67;100.00;100307.16;4949058;28;20510;-81
2023/03/19 06:29:42;;;;;;;408.27;240.77;;;8.60;99.90;;;8.76;100.00;100306.38;4950586;28;20749;-82
2023/03/19 06:32:09;;;;;;;410.75;239.40;;;8.60;99.90;;;8.82;100.00;100302.09;4953096;28;20305;-81
2023/03/19 06:34:36;;;;;;;410.67;238.50;;;8.60;99.90;;;8.78;100.00;100302.91;4949973;28;20233;-81
2023/03/19 06:37:04;;;;;;;433.77;247.50;;;8.60;99.90;;;8.81;100.00;100307.34;4953376;28;20253;-84
2023/03/19 06:39:31;;;;;;;404.00;234.00;;;8.70;99.90;;;8.84;100.00;100315.28;4951777;28;20296;-85
2023/03/19 06:41:58;;;;;;;404.80;244.68;;;8.60;99.90;;;8.75;100.00;100316.06;4961106;28;20342;-84
2023/03/19 06:44:26;;;;;;;411.55;245.55;;;8.60;99.90;;;8.71;100.00;100321.25;4944011;28;20266;-86
2023/03/19 06:46:53;;;;;;;416.45;242.15;;;8.60;99.90;;;8.72;100.00;100325.66;4953673;28;20233;-81
2023/03/19 06:49:20;;;;;;;408.58;237.43;;;8.60;99.90;;;8.74;100.00;100334.47;4951259;28;20230;-80
2023/03/19 06:51:48;;;;;;;411.55;237.75;;;8.60;99.90;;;8.77;100.00;100339.81;4957967;28;20246;-79
2023/03/19 06:54:15;;;;;;;415.80;245.48;;;8.60;99.90;;;8.82;100.00;100349.56;4953065;28;20225;-80
2023/03/19 06:56:42;;;;;;;420.30;240.05;;;8.70;99.90;;;8.78;100.00;100350.38;4953436;28;20237;-79
2023/03/19 06:59:11;;;;;;;410.10;247.18;;;8.70;99.90;;;8.81;100.00;100350.41;4953774;28;20233;-79
2023/03/19 07:01:42;;;;;;;405.27;231.35;;;8.70;99.90;;;8.90;100.00;100349.66;4955267;28;20241;-79
2023/03/19 07:04:10;;;;;;;405.38;232.40;;;8.70;99.90;;;8.94;100.00;100354.13;4956550;28;20257;-81
2023/03/19 07:06:37;;;;;;;411.98;245.73;;;8.80;99.90;;;8.95;100.00;100347.97;4955731;28;20384;-81
2023/03/19 07:09:04;;;;;;;403.02;230.75;;;8.80;99.90;;;8.97;100.00;100349.78;4957348;28;20248;-81
2023/03/19 07:11:31;;;;;;;413.50;239.77;;;8.80;99.90;;;8.96;100.00;100355.03;4943833;28;20293;-82
2023/03/19 07:14:02;;;;;;;400.52;233.98;;;8.80;99.90;;;8.96;100.00;100362.94;4947843;28;20234;-80
2023/03/19 07:16:29;;;;;;;407.23;258.90;;;8.80;99.90;;;9.00;100.00;100364.75;4940484;29;20306;-83
2023/03/19 07:18:56;;;;;;;412.15;250.52;;;8.80;99.90;;;9.05;100.00;100355.16;4945799;29;20246;-81
2023/03/19 07:21:23;;;;;;;405.50;234.73;;;8.90;99.90;;;9.17;100.00;100358.00;4949332;28;20230;-80
2023/03/19 07:23:50;;;;;;;400.20;232.25;;;9.00;99.90;;;9.23;100.00;100368.63;4962654;28;20277;-80
2023/03/19 07:26:18;;;;;;;403.88;240.38;;;9.10;99.90;;;9.26;100.00;100366.03;4948218;28;20246;-81
2023/03/19 07:28:45;;;;;;;413.67;250.85;;;9.10;99.90;;;9.40;100.00;100367.97;4940225;28;20242;-80
2023/03/19 07:31:12;;;;;;;414.85;255.77;;;9.20;99.90;;;9.54;100.00;100372.53;4943103;28;20316;-80
2023/03/19 07:33:39;;;;;;;412.70;261.77;;;9.30;99.90;;;9.66;100.00;100366.50;4950316;28;20237;-80
2023/03/19 07:36:07;;;;;;;408.58;260.58;;;9.40;99.90;;;9.78;100.00;100360.47;4955017;28;20241;-80
2023/03/19 07:38:34;;;;;;;415.00;257.48;;;9.70;99.90;;;9.89;100.00;100353.56;4949577;28;20320;-79
2023/03/19 07:41:01;;;;;;;403.23;248.23;;;9.60;99.90;;;9.99;100.00;100347.50;4949556;28;20245;-80
2023/03/19 07:43:30;;;;;;;410.73;254.05;;;9.90;99.90;;;10.10;100.00;100351.13;4949283;28;20317;-80
2023/03/19 07:45:58;;;;;;;416.95;318.85;;;9.90;99.90;;;10.18;99.52;100345.91;4946097;28;20265;-80
2023/03/19 07:48:26;;;;;;;421.85;321.98;;;;;;;10.28;99.26;100345.16;4947002;28;20237;-80
2023/03/19 07:50:54;;;;;;;421.48;316.63;;;;;;;10.35;98.52;100328.47;4948311;28;20236;-80
2023/03/19 07:53:21;;;;;;;429.17;310.73;;;;;;;10.48;98.12;100322.44;4949465;28;20333;-80
2023/03/19 07:55:49;;;;;;;420.92;336.27;;;;;;;10.50;98.04;100323.34;4950021;28;20242;-80
2023/03/19 07:58:17;;;;;;;432.35;348.73;;;;;;;10.58;98.39;100328.69;4948541;28;20265;-79
2023/03/19 08:00:45;;;;;;;446.52;350.55;;;;;;;10.62;97.82;100303.16;4944773;28;20230;-80
2023/03/19 08:03:13;;;;;;;429.92;358.30;;;;;;;10.65;96.68;100295.25;4948810;28;20249;-80
2023/03/19 08:05:40;;;;;;;457.30;372.05;;;10.60;99.90;;;10.71;95.93;100282.06;4944632;28;20233;-80
2023/03/19 08:08:08;;;;;;;425.67;358.88;;;;;;;10.71;96.16;100282.06;4945023;28;20282;-80
2023/03/19 08:10:36;;;;;;;437.85;305.48;;;10.60;99.90;;;10.75;96.30;100286.50;4950938;28;20237;-80
2023/03/19 08:13:04;;;;;;;429.45;313.30;;;10.60;99.90;;;10.85;96.45;100293.59;4947405;28;20233;-80
2023/03/19 08:15:32;;;;;;;419.83;305.38;;;10.80;99.90;;;10.98;96.08;100284.84;4946806;28;20253;-80
2023/03/19 08:18:02;;;;;;;419.30;305.80;;;10.80;99.90;;;11.14;96.13;100293.75;4952318;28;20261;-80
2023/03/19 08:20:29;;;;;;;425.85;318.55;;;11.10;99.90;;;11.28;95.36;100289.38;4953054;28;20241;-81
2023/03/19 08:22:58;;;;;;;422.00;320.55;;;11.10;99.90;;;11.41;94.87;100285.91;4946887;28;20293;-82
2023/03/19 08:25:25;;;;;;;427.98;334.45;;;11.20;99.90;;;11.48;94.57;100279.75;4950949;28;20229;-80
2023/03/19 08:27:53;;;;;;;440.00;343.05;;;11.40;99.90;;;11.62;93.90;100263.88;4948949;28;20249;-80
2023/03/19 08:30:20;;;;;;;424.17;333.80;;;11.40;99.90;;;11.82;93.12;100267.53;4947350;28;20238;-80
2023/03/19 08:32:48;;;;;;;434.38;345.40;;;11.60;99.90;;;11.98;90.67;100241.91;4944213;28;20283;-80
2023/03/19 08:35:15;;;;;;;428.42;344.52;;;11.80;99.90;;;12.07;88.60;100194.22;4951984;28;20230;-80
2023/03/19 08:37:45;;;;;;;441.27;359.33;;;11.90;99.90;;;12.07;86.89;100157.09;4949028;28;20238;-80
2023/03/19 08:40:13;;;;;;;424.90;361.52;;;11.90;99.90;;;12.16;86.24;100135.88;4951158;28;20249;-79
2023/03/19 08:42:41;;;;;;;448.65;380.42;;;12.00;99.90;;;12.26;85.78;100126.13;4947268;28;20230;-80
2023/03/19 08:45:13;;;;;;;447.67;380.63;;;12.10;99.90;;;12.30;85.24;100108.44;4945948;28;20292;-84
2023/03/19 08:47:42;;;;;;;452.75;402.90;;;12.20;99.90;;;12.44;84.17;100090.72;4940472;28;20234;-84
2023/03/19 08:50:10;;;;;;;431.08;374.27;;;12.20;99.90;;;12.45;83.84;100066.84;4948018;28;20238;-85
2023/03/19 08:52:37;;;;;;;447.10;390.88;;;12.30;99.90;;;12.60;84.37;100080.91;4950360;28;20237;-81
2023/03/19 08:55:08;;;;;;;451.20;402.33;;;12.40;99.90;;;12.71;82.31;100048.13;4945769;28;20238;-81
2023/03/19 08:57:36;;;;;;;469.65;419.35;;;12.60;99.90;;;12.83;81.59;100031.25;4951826;28;20237;-81
2023/03/19 09:00:06;;;;;;;485.15;435.80;;;12.60;99.90;;;12.98;81.02;100025.84;4949176;28;20245;-80
2023/03/19 09:02:34;;;;;;;468.58;419.85;;;;;;;13.07;80.67;100007.22;4965342;28;20233;-81
2023/03/19 09:05:02;;;;;;;471.75;422.42;;;;;;;13.19;80.79;99997.44;4946900;28;20237;-81
2023/03/19 09:07:29;;;;;;;499.83;448.55;;;12.90;99.90;;;13.44;81.24;100014.91;4938039;28;20285;-78
2023/03/19 09:09:56;;;;;;;504.90;454.60;;;13.20;99.90;;;13.76;79.57;99990.66;4944708;28;20277;-78
2023/03/19 09:12:27;;;;;;;502.35;451.65;;;13.70;99.90;;;14.12;77.22;99935.28;4946623;28;20242;-76
2023/03/19 09:14:55;;;;;;;517.35;466.70;;;13.70;99.90;;;14.55;76.21;99919.66;4947919;28;20256;-78
2023/03/19 09:17:22;;;;;;;550.60;499.42;;;14.20;99.90;;;14.79;74.09;99843.88;4949784;28;20297;-78
2023/03/19 09:19:49;;;;;;;554.17;503.17;;;14.50;99.90;;;14.69;74.05;99819.19;4946142;28;20333;-78
2023/03/19 09:22:16;;;;;;;553.47;502.48;;;14.50;99.90;;;14.81;73.48;99797.69;4950476;28;20257;-77
2023/03/19 09:24:43;;;;;;;567.75;517.15;;;14.80;99.90;;;15.09;72.02;99754.56;4940567;28;20261;-78
2023/03/19 09:27:10;;;;;;;587.65;536.00;;;14.80;99.90;;;15.27;71.40;99749.72;4947028;28;20269;-80
2023/03/19 09:29:37;;;;;;;584.22;532.35;;;15.10;99.90;;;15.31;70.74;99702.59;4948150;28;20288;-80
2023/03/19 09:32:05;;;;;;;600.83;549.08;;;15.10;99.90;;;15.24;69.11;99621.06;4948525;28;20252;-78
2023/03/19 09:34:32;;;;;;;597.25;546.65;;;;;;;15.25;68.27;99582.88;4950041;28;20714;-78
2023/03/19 09:37:00;;;;;;;616.78;565.30;;;;;;;15.09;68.20;99558.38;4934318;29;20277;-79
2023/03/19 09:39:27;;;;;;;626.35;574.30;;;15.00;99.90;;;15.24;68.88;99592.63;4946352;28;20320;-78
2023/03/19 09:42:54;;;;;;;637.03;585.05;;;15.00;99.90;;;15.50;68.41;99588.47;4951348;28;20312;-77
2023/03/19 09:45:22;;;;;;;631.13;579.83;;;15.60;99.90;;;15.78;66.47;99508.75;4946163;28;20234;-78
2023/03/19 09:47:55;;;;;;;659.38;606.13;;;15.70;99.90;;;15.90;66.14;99487.09;4945825;28;20302;-79
2023/03/19 09:50:27;;;;;;;676.75;622.45;;;15.70;99.90;;;16.30;65.34;99482.38;4943717;28;21159;-78
2023/03/19 09:53:16;;;;;;;682.40;629.03;;;16.00;99.90;;;16.29;64.02;99397.91;4943789;28;20238;-78
2023/03/19 09:55:49;;;;;;;682.50;629.15;;;15.90;99.90;;;15.94;63.07;99281.66;4941938;28;20284;-78
2023/03/19 09:58:20;;;;;;;678.97;626.75;;;15.90;99.90;;;16.70;63.29;99371.75;4948295;28;20238;-78
2023/03/19 10:00:50;;;;;;;711.47;658.20;;;16.60;99.90;;;16.87;62.43;99328.47;4942644;28;20234;-77
2023/03/19 10:04:25;;;;;;;712.35;659.20;;;16.60;99.90;;;16.58;59.79;99143.47;4926876;29;20309;-77
2023/03/19 10:07:09;;;;;;;713.35;659.78;;;18.40;99.90;;;16.37;60.40;99135.34;4938277;28;20324;-78
2023/03/19 10:09:45;;;;;;;727.35;672.83;;;16.20;99.90;;;16.26;60.88;99119.72;4941501;28;20674;-79